sensor_id;sensor_type;location;lat;lon;timestamp;P1;durP1;ratioP1;P2;durP2;ratioP2
286;SDS011;127;48.770;9.212;2023-05-10T00:00:31;1.87;;;1.77;;
286;SDS011;127;48.770;9.212;2023-05-10T00:02:59;3.50;;;1.90;;
286;SDS011;127;48.770;9.212;2023-05-10T00:05:34;2.90;;;2.03;;
286;SDS011;127;48.770;9.212;2023-05-10T00:08:04;2.67;;;2.40;;
286;SDS011;127;48.770;9.212;2023-05-10T00:10:33;3.50;;;2.13;;
286;SDS011;127;48.770;9.212;2023-05-10T00:13:03;8.67;;;2.93;;
286;SDS011;127;48.770;9.212;2023-05-10T00:15:32;2.27;;;2.03;;
286;SDS011;127;48.770;9.212;2023-05-10T00:18:06;2.57;;;1.63;;
286;SDS011;127;48.770;9.212;2023-05-10T00:20:38;10.20;;;2.07;;
286;SDS011;127;48.770;9.212;2023-05-10T00:23:06;2.10;;;1.60;;
286;SDS011;127;48.770;9.212;2023-05-10T00:25:40;5.80;;;1.50;;
286;SDS011;127;48.770;9.212;2023-05-10T00:28:09;1.20;;;1.17;;
286;SDS011;127;48.770;9.212;2023-05-10T00:30:37;2.00;;;1.10;;
286;SDS011;127;48.770;9.212;2023-05-10T00:33:06;1.37;;;1.30;;
286;SDS011;127;48.770;9.212;2023-05-10T00:35:39;2.37;;;1.30;;
286;SDS011;127;48.770;9.212;2023-05-10T00:38:09;1.33;;;1.23;;
286;SDS011;127;48.770;9.212;2023-05-10T00:40:38;1.67;;;1.47;;
286;SDS011;127;48.770;9.212;2023-05-10T00:43:13;1.20;;;1.10;;
286;SDS011;127;48.770;9.212;2023-05-10T00:45:41;1.30;;;1.20;;
286;SDS011;127;48.770;9.212;2023-05-10T00:48:10;4.50;;;1.10;;
286;SDS011;127;48.770;9.212;2023-05-10T00:50:42;0.90;;;0.87;;
286;SDS011;127;48.770;9.212;2023-05-10T00:53:21;1.20;;;1.20;;
286;SDS011;127;48.770;9.212;2023-05-10T00:55:55;11.10;;;1.23;;
286;SDS011;127;48.770;9.212;2023-05-10T00:58:24;1.50;;;1.10;;
286;SDS011;127;48.770;9.212;2023-05-10T01:00:56;1.87;;;1.00;;
286;SDS011;127;48.770;9.212;2023-05-10T01:03:25;2.53;;;1.27;;
286;SDS011;127;48.770;9.212;2023-05-10T01:05:57;1.57;;;1.17;;
286;SDS011;127;48.770;9.212;2023-05-10T01:08:26;2.10;;;1.13;;
286;SDS011;127;48.770;9.212;2023-05-10T01:10:59;1.13;;;1.10;;
286;SDS011;127;48.770;9.212;2023-05-10T01:13:30;1.30;;;1.20;;
286;SDS011;127;48.770;9.212;2023-05-10T01:16:01;0.97;;;0.93;;
286;SDS011;127;48.770;9.212;2023-05-10T01:18:32;1.23;;;1.20;;
286;SDS011;127;48.770;9.212;2023-05-10T01:21:08;1.30;;;1.20;;
286;SDS011;127;48.770;9.212;2023-05-10T01:26:54;1.23;;;0.90;;
286;SDS011;127;48.770;9.212;2023-05-10T01:33:01;1.30;;;1.20;;
286;SDS011;127;48.770;9.212;2023-05-10T01:35:36;1.13;;;1.03;;
286;SDS011;127;48.770;9.212;2023-05-10T01:38:11;5.30;;;1.40;;
286;SDS011;127;48.770;9.212;2023-05-10T01:40:50;2.17;;;1.60;;
286;SDS011;127;48.770;9.212;2023-05-10T01:43:28;2.53;;;1.07;;
286;SDS011;127;48.770;9.212;2023-05-10T01:46:02;1.17;;;1.10;;
286;SDS011;127;48.770;9.212;2023-05-10T01:48:40;1.43;;;1.27;;
286;SDS011;127;48.770;9.212;2023-05-10T01:51:14;1.50;;;1.47;;
286;SDS011;127;48.770;9.212;2023-05-10T01:54:04;1.37;;;1.27;;
286;SDS011;127;48.770;9.212;2023-05-10T01:56:35;2.93;;;1.30;;
286;SDS011;127;48.770;9.212;2023-05-10T01:59:10;1.20;;;1.10;;
286;SDS011;127;48.770;9.212;2023-05-10T02:01:44;1.10;;;1.10;;
286;SDS011;127;48.770;9.212;2023-05-10T02:04:17;2.57;;;1.23;;
286;SDS011;127;48.770;9.212;2023-05-10T02:06:54;4.93;;;1.50;;
286;SDS011;127;48.770;9.212;2023-05-10T02:09:29;1.30;;;1.20;;
286;SDS011;127;48.770;9.212;2023-05-10T02:12:03;3.93;;;1.23;;
286;SDS011;127;48.770;9.212;2023-05-10T02:14:35;1.40;;;1.30;;
286;SDS011;127;48.770;9.212;2023-05-10T02:17:07;1.40;;;1.33;;
286;SDS011;127;48.770;9.212;2023-05-10T02:19:41;1.83;;;1.37;;
286;SDS011;127;48.770;9.212;2023-05-10T02:22:11;2.43;;;1.43;;
286;SDS011;127;48.770;9.212;2023-05-10T02:24:40;1.50;;;1.40;;
286;SDS011;127;48.770;9.212;2023-05-10T02:27:09;1.27;;;1.17;;
286;SDS011;127;48.770;9.212;2023-05-10T02:29:39;1.90;;;1.47;;
286;SDS011;127;48.770;9.212;2023-05-10T02:32:09;1.20;;;1.10;;
286;SDS011;127;48.770;9.212;2023-05-10T02:34:49;1.40;;;1.30;;
286;SDS011;127;48.770;9.212;2023-05-10T02:37:20;1.77;;;1.70;;
286;SDS011;127;48.770;9.212;2023-05-10T02:39:50;4.17;;;1.40;;
286;SDS011;127;48.770;9.212;2023-05-10T02:42:24;1.40;;;1.30;;
286;SDS011;127;48.770;9.212;2023-05-10T02:44:56;3.33;;;1.57;;
286;SDS011;127;48.770;9.212;2023-05-10T02:47:30;1.70;;;1.60;;
286;SDS011;127;48.770;9.212;2023-05-10T02:50:04;1.40;;;1.20;;
286;SDS011;127;48.770;9.212;2023-05-10T02:52:38;2.87;;;1.63;;
286;SDS011;127;48.770;9.212;2023-05-10T02:55:09;2.57;;;1.70;;
286;SDS011;127;48.770;9.212;2023-05-10T02:57:43;1.53;;;1.43;;
286;SDS011;127;48.770;9.212;2023-05-10T03:00:17;1.60;;;1.50;;
286;SDS011;127;48.770;9.212;2023-05-10T03:02:46;1.80;;;1.63;;
286;SDS011;127;48.770;9.212;2023-05-10T03:05:18;2.57;;;1.20;;
286;SDS011;127;48.770;9.212;2023-05-10T03:07:50;4.13;;;1.40;;
286;SDS011;127;48.770;9.212;2023-05-10T03:10:23;2.60;;;1.50;;
286;SDS011;127;48.770;9.212;2023-05-10T03:13:01;1.60;;;1.50;;
286;SDS011;127;48.770;9.212;2023-05-10T03:15:40;2.70;;;1.60;;
286;SDS011;127;48.770;9.212;2023-05-10T03:18:17;1.70;;;1.50;;
286;SDS011;127;48.770;9.212;2023-05-10T03:20:56;4.93;;;1.57;;
286;SDS011;127;48.770;9.212;2023-05-10T03:23:34;3.10;;;1.50;;
286;SDS011;127;48.770;9.212;2023-05-10T03:26:08;2.20;;;2.00;;
286;SDS011;127;48.770;9.212;2023-05-10T03:28:39;4.00;;;1.87;;
286;SDS011;127;48.770;9.212;2023-05-10T03:31:11;1.70;;;1.60;;
286;SDS011;127;48.770;9.212;2023-05-10T03:33:52;1.90;;;1.53;;
286;SDS011;127;48.770;9.212;2023-05-10T03:36:24;1.90;;;1.83;;
286;SDS011;127;48.770;9.212;2023-05-10T03:38:52;1.73;;;1.70;;
286;SDS011;127;48.770;9.212;2023-05-10T03:41:21;3.13;;;1.60;;
286;SDS011;127;48.770;9.212;2023-05-10T03:43:50;1.80;;;1.70;;
286;SDS011;127;48.770;9.212;2023-05-10T03:46:19;2.00;;;1.90;;
286;SDS011;127;48.770;9.212;2023-05-10T03:48:47;2.30;;;2.10;;
286;SDS011;127;48.770;9.212;2023-05-10T03:51:16;2.43;;;2.23;;
286;SDS011;127;48.770;9.212;2023-05-10T03:53:51;2.43;;;1.97;;
286;SDS011;127;48.770;9.212;2023-05-10T03:56:22;2.73;;;2.10;;
286;SDS011;127;48.770;9.212;2023-05-10T03:58:53;2.40;;;2.23;;
286;SDS011;127;48.770;9.212;2023-05-10T04:01:21;2.30;;;2.10;;
286;SDS011;127;48.770;9.212;2023-05-10T04:03:50;2.33;;;2.20;;
286;SDS011;127;48.770;9.212;2023-05-10T04:06:19;2.13;;;2.00;;
286;SDS011;127;48.770;9.212;2023-05-10T04:08:47;3.00;;;2.57;;
286;SDS011;127;48.770;9.212;2023-05-10T04:11:23;5.93;;;2.43;;
286;SDS011;127;48.770;9.212;2023-05-10T04:14:02;3.27;;;3.07;;
286;SDS011;127;48.770;9.212;2023-05-10T04:16:34;2.87;;;2.10;;
286;SDS011;127;48.770;9.212;2023-05-10T04:19:04;5.53;;;2.10;;
286;SDS011;127;48.770;9.212;2023-05-10T04:21:33;6.80;;;2.00;;
286;SDS011;127;48.770;9.212;2023-05-10T04:24:02;7.93;;;2.30;;
286;SDS011;127;48.770;9.212;2023-05-10T04:26:34;4.03;;;2.60;;
286;SDS011;127;48.770;9.212;2023-05-10T04:29:05;3.40;;;2.63;;
286;SDS011;127;48.770;9.212;2023-05-10T04:31:34;4.80;;;2.50;;
286;SDS011;127;48.770;9.212;2023-05-10T04:34:03;2.00;;;1.90;;
286;SDS011;127;48.770;9.212;2023-05-10T04:36:32;2.33;;;1.70;;
286;SDS011;127;48.770;9.212;2023-05-10T04:39:01;5.37;;;2.50;;
286;SDS011;127;48.770;9.212;2023-05-10T04:41:30;2.60;;;2.40;;
286;SDS011;127;48.770;9.212;2023-05-10T04:44:05;2.43;;;1.77;;
286;SDS011;127;48.770;9.212;2023-05-10T04:46:37;2.00;;;1.80;;
286;SDS011;127;48.770;9.212;2023-05-10T04:49:05;3.70;;;1.70;;
286;SDS011;127;48.770;9.212;2023-05-10T04:51:34;3.77;;;1.80;;
286;SDS011;127;48.770;9.212;2023-05-10T04:54:03;2.20;;;2.00;;
286;SDS011;127;48.770;9.212;2023-05-10T04:56:40;1.83;;;1.53;;
286;SDS011;127;48.770;9.212;2023-05-10T04:59:08;2.80;;;1.50;;
286;SDS011;127;48.770;9.212;2023-05-10T05:01:37;1.93;;;1.80;;
286;SDS011;127;48.770;9.212;2023-05-10T05:04:06;2.00;;;1.40;;
286;SDS011;127;48.770;9.212;2023-05-10T05:06:41;4.73;;;1.77;;
286;SDS011;127;48.770;9.212;2023-05-10T05:09:11;8.77;;;2.03;;
286;SDS011;127;48.770;9.212;2023-05-10T05:11:43;1.77;;;1.50;;
286;SDS011;127;48.770;9.212;2023-05-10T05:14:11;2.07;;;1.80;;
286;SDS011;127;48.770;9.212;2023-05-10T05:16:40;1.83;;;1.33;;
286;SDS011;127;48.770;9.212;2023-05-10T05:19:09;1.63;;;1.60;;
286;SDS011;127;48.770;9.212;2023-05-10T05:21:37;3.23;;;2.50;;
286;SDS011;127;48.770;9.212;2023-05-10T05:24:06;2.73;;;1.60;;
286;SDS011;127;48.770;9.212;2023-05-10T05:26:36;8.50;;;1.73;;
286;SDS011;127;48.770;9.212;2023-05-10T05:29:08;1.97;;;1.87;;
286;SDS011;127;48.770;9.212;2023-05-10T05:31:37;1.53;;;1.43;;
286;SDS011;127;48.770;9.212;2023-05-10T05:34:06;1.50;;;1.33;;
286;SDS011;127;48.770;9.212;2023-05-10T05:36:37;2.07;;;1.30;;
286;SDS011;127;48.770;9.212;2023-05-10T05:39:15;2.57;;;1.70;;
286;SDS011;127;48.770;9.212;2023-05-10T05:41:44;1.73;;;1.70;;
286;SDS011;127;48.770;9.212;2023-05-10T05:47:24;5.90;;;1.80;;
286;SDS011;127;48.770;9.212;2023-05-10T05:49:54;3.00;;;1.70;;
286;SDS011;127;48.770;9.212;2023-05-10T05:52:25;1.77;;;1.60;;
286;SDS011;127;48.770;9.212;2023-05-10T05:54:56;2.23;;;1.87;;
286;SDS011;127;48.770;9.212;2023-05-10T05:57:26;1.83;;;1.73;;
286;SDS011;127;48.770;9.212;2023-05-10T05:59:55;4.00;;;2.10;;
286;SDS011;127;48.770;9.212;2023-05-10T06:02:27;12.57;;;2.00;;
286;SDS011;127;48.770;9.212;2023-05-10T06:04:55;2.03;;;1.93;;
286;SDS011;127;48.770;9.212;2023-05-10T06:07:24;3.70;;;2.00;;
286;SDS011;127;48.770;9.212;2023-05-10T06:09:53;2.80;;;1.90;;
286;SDS011;127;48.770;9.212;2023-05-10T06:12:22;3.00;;;1.83;;
286;SDS011;127;48.770;9.212;2023-05-10T06:14:50;5.93;;;2.13;;
286;SDS011;127;48.770;9.212;2023-05-10T06:17:22;2.83;;;2.10;;
286;SDS011;127;48.770;9.212;2023-05-10T06:19:55;2.37;;;1.83;;
286;SDS011;127;48.770;9.212;2023-05-10T06:22:23;4.00;;;1.77;;
286;SDS011;127;48.770;9.212;2023-05-10T06:24:52;6.30;;;2.80;;
286;SDS011;127;48.770;9.212;2023-05-10T06:27:24;2.40;;;1.70;;
286;SDS011;127;48.770;9.212;2023-05-10T06:29:52;2.23;;;2.10;;
286;SDS011;127;48.770;9.212;2023-05-10T06:32:29;2.60;;;2.10;;
286;SDS011;127;48.770;9.212;2023-05-10T06:35:01;3.23;;;1.83;;
286;SDS011;127;48.770;9.212;2023-05-10T06:37:36;5.00;;;2.30;;
286;SDS011;127;48.770;9.212;2023-05-10T06:40:05;4.23;;;2.43;;
286;SDS011;127;48.770;9.212;2023-05-10T06:42:37;2.70;;;2.20;;
286;SDS011;127;48.770;9.212;2023-05-10T06:45:07;3.73;;;2.07;;
286;SDS011;127;48.770;9.212;2023-05-10T06:47:43;2.20;;;2.07;;
286;SDS011;127;48.770;9.212;2023-05-10T06:50:23;5.60;;;2.20;;
286;SDS011;127;48.770;9.212;2023-05-10T06:52:52;3.80;;;2.07;;
286;SDS011;127;48.770;9.212;2023-05-10T06:55:23;7.87;;;2.30;;
286;SDS011;127;48.770;9.212;2023-05-10T06:57:52;2.90;;;2.47;;
286;SDS011;127;48.770;9.212;2023-05-10T07:00:21;4.30;;;2.37;;
286;SDS011;127;48.770;9.212;2023-05-10T07:02:50;3.03;;;1.80;;
286;SDS011;127;48.770;9.212;2023-05-10T07:05:25;2.93;;;2.40;;
286;SDS011;127;48.770;9.212;2023-05-10T07:07:59;6.97;;;2.70;;
286;SDS011;127;48.770;9.212;2023-05-10T07:10:38;2.47;;;2.20;;
286;SDS011;127;48.770;9.212;2023-05-10T07:13:19;7.90;;;2.63;;
286;SDS011;127;48.770;9.212;2023-05-10T07:15:55;3.67;;;2.03;;
286;SDS011;127;48.770;9.212;2023-05-10T07:18:31;2.73;;;2.03;;
286;SDS011;127;48.770;9.212;2023-05-10T07:21:04;3.20;;;2.10;;
286;SDS011;127;48.770;9.212;2023-05-10T07:23:38;2.40;;;2.00;;
286;SDS011;127;48.770;9.212;2023-05-10T07:26:11;2.63;;;1.57;;
286;SDS011;127;48.770;9.212;2023-05-10T07:28:42;4.17;;;2.07;;
286;SDS011;127;48.770;9.212;2023-05-10T07:31:12;3.70;;;1.90;;
286;SDS011;127;48.770;9.212;2023-05-10T07:33:51;3.97;;;1.80;;
286;SDS011;127;48.770;9.212;2023-05-10T07:36:22;2.83;;;1.80;;
286;SDS011;127;48.770;9.212;2023-05-10T07:38:51;4.30;;;2.00;;
286;SDS011;127;48.770;9.212;2023-05-10T07:41:20;3.30;;;2.17;;
286;SDS011;127;48.770;9.212;2023-05-10T07:43:53;2.20;;;1.60;;
286;SDS011;127;48.770;9.212;2023-05-10T07:46:23;5.23;;;1.40;;
286;SDS011;127;48.770;9.212;2023-05-10T07:48:55;4.00;;;1.60;;
286;SDS011;127;48.770;9.212;2023-05-10T07:51:36;1.40;;;1.23;;
286;SDS011;127;48.770;9.212;2023-05-10T07:54:08;1.87;;;1.60;;
286;SDS011;127;48.770;9.212;2023-05-10T07:56:43;2.13;;;1.20;;
286;SDS011;127;48.770;9.212;2023-05-10T07:59:19;1.50;;;1.50;;
286;SDS011;127;48.770;9.212;2023-05-10T08:01:55;3.00;;;1.57;;
286;SDS011;127;48.770;9.212;2023-05-10T08:04:24;2.93;;;1.40;;
286;SDS011;127;48.770;9.212;2023-05-10T08:07:12;3.57;;;1.40;;
286;SDS011;127;48.770;9.212;2023-05-10T08:09:44;3.30;;;1.40;;
286;SDS011;127;48.770;9.212;2023-05-10T08:12:12;3.53;;;1.50;;
286;SDS011;127;48.770;9.212;2023-05-10T08:14:43;3.60;;;1.50;;
286;SDS011;127;48.770;9.212;2023-05-10T08:17:16;1.67;;;1.50;;
286;SDS011;127;48.770;9.212;2023-05-10T08:19:51;2.40;;;1.40;;
286;SDS011;127;48.770;9.212;2023-05-10T08:29:01;1.90;;;1.27;;
286;SDS011;127;48.770;9.212;2023-05-10T08:31:30;1.80;;;1.13;;
286;SDS011;127;48.770;9.212;2023-05-10T08:33:59;1.40;;;1.10;;
286;SDS011;127;48.770;9.212;2023-05-10T08:36:28;4.23;;;1.40;;
286;SDS011;127;48.770;9.212;2023-05-10T08:39:03;1.60;;;1.43;;
286;SDS011;127;48.770;9.212;2023-05-10T08:41:44;13.43;;;1.50;;
286;SDS011;127;48.770;9.212;2023-05-10T08:44:24;1.67;;;1.20;;
286;SDS011;127;48.770;9.212;2023-05-10T08:47:05;2.40;;;1.87;;
286;SDS011;127;48.770;9.212;2023-05-10T08:49:39;1.73;;;1.00;;
286;SDS011;127;48.770;9.212;2023-05-10T08:52:13;1.70;;;1.20;;
286;SDS011;127;48.770;9.212;2023-05-10T08:54:47;1.03;;;0.90;;
286;SDS011;127;48.770;9.212;2023-05-10T08:57:17;1.50;;;1.10;;
286;SDS011;127;48.770;9.212;2023-05-10T09:00:06;3.00;;;1.03;;
286;SDS011;127;48.770;9.212;2023-05-10T09:02:40;1.53;;;1.20;;
286;SDS011;127;48.770;9.212;2023-05-10T09:05:15;1.50;;;1.00;;
286;SDS011;127;48.770;9.212;2023-05-10T09:07:44;2.80;;;1.20;;
286;SDS011;127;48.770;9.212;2023-05-10T09:13:40;4.83;;;1.20;;
286;SDS011;127;48.770;9.212;2023-05-10T09:16:39;1.67;;;0.90;;
286;SDS011;127;48.770;9.212;2023-05-10T09:19:30;1.60;;;1.30;;
286;SDS011;127;48.770;9.212;2023-05-10T09:21:59;1.90;;;1.20;;
286;SDS011;127;48.770;9.212;2023-05-10T09:24:41;2.70;;;1.50;;
286;SDS011;127;48.770;9.212;2023-05-10T09:27:16;1.30;;;1.30;;
286;SDS011;127;48.770;9.212;2023-05-10T09:29:52;1.73;;;1.10;;
286;SDS011;127;48.770;9.212;2023-05-10T09:35:33;3.90;;;1.30;;
286;SDS011;127;48.770;9.212;2023-05-10T09:38:05;2.70;;;1.00;;
286;SDS011;127;48.770;9.212;2023-05-10T09:41:15;2.83;;;1.10;;
286;SDS011;127;48.770;9.212;2023-05-10T09:43:48;2.97;;;1.13;;
286;SDS011;127;48.770;9.212;2023-05-10T09:46:50;2.50;;;1.00;;
286;SDS011;127;48.770;9.212;2023-05-10T09:49:22;4.63;;;0.90;;
286;SDS011;127;48.770;9.212;2023-05-10T09:54:55;5.53;;;1.20;;
286;SDS011;127;48.770;9.212;2023-05-10T09:57:30;1.27;;;1.10;;
286;SDS011;127;48.770;9.212;2023-05-10T10:01:15;2.43;;;1.10;;
286;SDS011;127;48.770;9.212;2023-05-10T10:03:28;1.47;;;0.90;;
286;SDS011;127;48.770;9.212;2023-05-10T10:06:01;2.13;;;1.37;;
286;SDS011;127;48.770;9.212;2023-05-10T10:09:01;3.53;;;1.30;;
286;SDS011;127;48.770;9.212;2023-05-10T10:11:33;1.50;;;1.00;;
286;SDS011;127;48.770;9.212;2023-05-10T10:14:03;3.73;;;1.00;;
286;SDS011;127;48.770;9.212;2023-05-10T10:16:32;1.10;;;0.93;;
286;SDS011;127;48.770;9.212;2023-05-10T10:19:01;2.20;;;1.23;;
286;SDS011;127;48.770;9.212;2023-05-10T10:21:40;1.40;;;1.10;;
286;SDS011;127;48.770;9.212;2023-05-10T10:24:11;4.03;;;1.57;;
286;SDS011;127;48.770;9.212;2023-05-10T10:26:42;1.20;;;0.90;;
286;SDS011;127;48.770;9.212;2023-05-10T10:29:16;1.27;;;1.17;;
286;SDS011;127;48.770;9.212;2023-05-10T10:31:51;1.30;;;1.23;;
286;SDS011;127;48.770;9.212;2023-05-10T10:34:30;1.90;;;1.10;;
286;SDS011;127;48.770;9.212;2023-05-10T10:37:10;2.30;;;1.10;;
286;SDS011;127;48.770;9.212;2023-05-10T10:42:52;1.50;;;1.20;;
286;SDS011;127;48.770;9.212;2023-05-10T10:45:22;5.23;;;1.27;;
286;SDS011;127;48.770;9.212;2023-05-10T10:50:56;2.20;;;1.33;;
286;SDS011;127;48.770;9.212;2023-05-10T10:53:26;5.43;;;1.20;;
286;SDS011;127;48.770;9.212;2023-05-10T10:56:05;5.07;;;1.93;;
286;SDS011;127;48.770;9.212;2023-05-10T10:58:49;3.03;;;1.30;;
286;SDS011;127;48.770;9.212;2023-05-10T11:01:24;1.17;;;1.00;;
286;SDS011;127;48.770;9.212;2023-05-10T11:07:02;1.43;;;1.33;;
286;SDS011;127;48.770;9.212;2023-05-10T11:09:46;1.10;;;1.03;;
286;SDS011;127;48.770;9.212;2023-05-10T11:12:18;2.77;;;1.10;;
286;SDS011;127;48.770;9.212;2023-05-10T11:14:49;1.30;;;1.03;;
286;SDS011;127;48.770;9.212;2023-05-10T11:17:24;1.20;;;1.00;;
286;SDS011;127;48.770;9.212;2023-05-10T11:20:10;5.43;;;1.23;;
286;SDS011;127;48.770;9.212;2023-05-10T11:22:50;1.20;;;1.10;;
286;SDS011;127;48.770;9.212;2023-05-10T11:25:23;6.30;;;1.60;;
286;SDS011;127;48.770;9.212;2023-05-10T11:27:57;1.80;;;1.20;;
286;SDS011;127;48.770;9.212;2023-05-10T11:30:30;1.93;;;1.40;;
286;SDS011;127;48.770;9.212;2023-05-10T11:33:19;1.50;;;1.17;;
286;SDS011;127;48.770;9.212;2023-05-10T11:35:57;1.40;;;1.03;;
286;SDS011;127;48.770;9.212;2023-05-10T11:38:26;1.10;;;0.97;;
286;SDS011;127;48.770;9.212;2023-05-10T11:40:56;2.73;;;1.30;;
286;SDS011;127;48.770;9.212;2023-05-10T11:43:27;2.40;;;0.97;;
286;SDS011;127;48.770;9.212;2023-05-10T11:45:57;3.00;;;1.33;;
286;SDS011;127;48.770;9.212;2023-05-10T11:48:31;2.10;;;1.20;;
286;SDS011;127;48.770;9.212;2023-05-10T11:51:01;2.80;;;1.00;;
286;SDS011;127;48.770;9.212;2023-05-10T11:53:31;3.20;;;1.13;;
286;SDS011;127;48.770;9.212;2023-05-10T11:56:03;1.70;;;1.43;;
286;SDS011;127;48.770;9.212;2023-05-10T11:58:51;6.33;;;1.53;;
286;SDS011;127;48.770;9.212;2023-05-10T12:01:32;5.17;;;1.00;;
286;SDS011;127;48.770;9.212;2023-05-10T12:04:01;7.33;;;1.80;;
286;SDS011;127;48.770;9.212;2023-05-10T12:06:32;2.20;;;1.20;;
286;SDS011;127;48.770;9.212;2023-05-10T12:09:09;4.60;;;1.30;;
286;SDS011;127;48.770;9.212;2023-05-10T12:11:38;4.47;;;1.60;;
286;SDS011;127;48.770;9.212;2023-05-10T12:14:10;1.93;;;1.20;;
286;SDS011;127;48.770;9.212;2023-05-10T12:16:40;2.20;;;1.30;;
286;SDS011;127;48.770;9.212;2023-05-10T12:19:11;1.20;;;1.10;;
286;SDS011;127;48.770;9.212;2023-05-10T12:21:46;5.20;;;1.60;;
286;SDS011;127;48.770;9.212;2023-05-10T12:24:18;3.37;;;1.50;;
286;SDS011;127;48.770;9.212;2023-05-10T12:26:49;2.73;;;1.53;;
286;SDS011;127;48.770;9.212;2023-05-10T12:29:23;4.53;;;1.73;;
286;SDS011;127;48.770;9.212;2023-05-10T12:31:52;3.37;;;1.50;;
286;SDS011;127;48.770;9.212;2023-05-10T12:34:23;5.00;;;1.57;;
286;SDS011;127;48.770;9.212;2023-05-10T12:36:53;1.83;;;1.43;;
286;SDS011;127;48.770;9.212;2023-05-10T12:39:22;2.70;;;1.53;;
286;SDS011;127;48.770;9.212;2023-05-10T12:41:54;7.17;;;1.60;;
286;SDS011;127;48.770;9.212;2023-05-10T12:44:30;1.80;;;1.40;;
286;SDS011;127;48.770;9.212;2023-05-10T12:47:00;5.50;;;1.60;;
286;SDS011;127;48.770;9.212;2023-05-10T12:49:33;1.93;;;1.40;;
286;SDS011;127;48.770;9.212;2023-05-10T12:52:05;2.63;;;1.40;;
286;SDS011;127;48.770;9.212;2023-05-10T12:54:33;4.63;;;1.63;;
286;SDS011;127;48.770;9.212;2023-05-10T12:57:08;8.73;;;1.47;;
286;SDS011;127;48.770;9.212;2023-05-10T12:59:40;7.17;;;1.80;;
286;SDS011;127;48.770;9.212;2023-05-10T13:02:14;3.10;;;1.70;;
286;SDS011;127;48.770;9.212;2023-05-10T13:04:43;1.80;;;1.37;;
286;SDS011;127;48.770;9.212;2023-05-10T13:07:13;2.50;;;1.47;;
286;SDS011;127;48.770;9.212;2023-05-10T13:09:44;3.13;;;1.50;;
286;SDS011;127;48.770;9.212;2023-05-10T13:12:13;2.60;;;1.47;;
286;SDS011;127;48.770;9.212;2023-05-10T13:15:06;2.70;;;1.67;;
286;SDS011;127;48.770;9.212;2023-05-10T13:17:37;3.43;;;1.30;;
286;SDS011;127;48.770;9.212;2023-05-10T13:20:07;6.57;;;2.33;;
286;SDS011;127;48.770;9.212;2023-05-10T13:22:37;5.00;;;1.90;;
286;SDS011;127;48.770;9.212;2023-05-10T13:25:10;3.43;;;1.70;;
286;SDS011;127;48.770;9.212;2023-05-10T13:27:39;4.50;;;1.43;;
286;SDS011;127;48.770;9.212;2023-05-10T13:30:10;3.07;;;1.40;;
286;SDS011;127;48.770;9.212;2023-05-10T13:32:39;3.53;;;1.50;;
286;SDS011;127;48.770;9.212;2023-05-10T13:35:08;5.33;;;1.47;;
286;SDS011;127;48.770;9.212;2023-05-10T13:37:37;5.23;;;1.40;;
286;SDS011;127;48.770;9.212;2023-05-10T13:40:06;1.73;;;1.60;;
286;SDS011;127;48.770;9.212;2023-05-10T13:43:19;3.63;;;1.33;;
286;SDS011;127;48.770;9.212;2023-05-10T13:45:56;2.27;;;1.13;;
286;SDS011;127;48.770;9.212;2023-05-10T13:48:28;4.77;;;1.40;;
286;SDS011;127;48.770;9.212;2023-05-10T13:50:57;1.77;;;1.50;;
286;SDS011;127;48.770;9.212;2023-05-10T13:53:27;8.27;;;1.20;;
286;SDS011;127;48.770;9.212;2023-05-10T13:55:59;3.60;;;1.50;;
286;SDS011;127;48.770;9.212;2023-05-10T13:58:28;6.97;;;1.50;;
286;SDS011;127;48.770;9.212;2023-05-10T14:01:00;2.13;;;1.37;;
286;SDS011;127;48.770;9.212;2023-05-10T14:03:31;3.53;;;1.20;;
286;SDS011;127;48.770;9.212;2023-05-10T14:06:00;1.40;;;1.30;;
286;SDS011;127;48.770;9.212;2023-05-10T14:08:29;4.00;;;1.27;;
286;SDS011;127;48.770;9.212;2023-05-10T14:10:58;3.30;;;1.43;;
286;SDS011;127;48.770;9.212;2023-05-10T14:13:26;4.50;;;1.50;;
286;SDS011;127;48.770;9.212;2023-05-10T14:15:55;2.90;;;2.10;;
286;SDS011;127;48.770;9.212;2023-05-10T14:18:28;3.73;;;1.30;;
286;SDS011;127;48.770;9.212;2023-05-10T14:20:57;1.87;;;1.03;;
286;SDS011;127;48.770;9.212;2023-05-10T14:23:28;8.03;;;1.70;;
286;SDS011;127;48.770;9.212;2023-05-10T14:25:57;1.40;;;1.20;;
286;SDS011;127;48.770;9.212;2023-05-10T14:28:26;2.20;;;1.40;;
286;SDS011;127;48.770;9.212;2023-05-10T14:30:58;2.73;;;1.33;;
286;SDS011;127;48.770;9.212;2023-05-10T14:33:33;4.17;;;1.30;;
286;SDS011;127;48.770;9.212;2023-05-10T14:36:05;3.77;;;1.40;;
286;SDS011;127;48.770;9.212;2023-05-10T14:38:40;2.50;;;1.20;;
286;SDS011;127;48.770;9.212;2023-05-10T14:41:09;2.00;;;1.00;;
286;SDS011;127;48.770;9.212;2023-05-10T14:43:43;6.33;;;1.10;;
286;SDS011;127;48.770;9.212;2023-05-10T14:46:12;1.23;;;1.10;;
286;SDS011;127;48.770;9.212;2023-05-10T14:48:45;3.10;;;1.60;;
286;SDS011;127;48.770;9.212;2023-05-10T14:51:17;5.27;;;1.60;;
286;SDS011;127;48.770;9.212;2023-05-10T14:54:20;1.90;;;1.43;;
286;SDS011;127;48.770;9.212;2023-05-10T14:56:36;2.50;;;1.40;;
286;SDS011;127;48.770;9.212;2023-05-10T14:59:08;1.20;;;1.10;;
286;SDS011;127;48.770;9.212;2023-05-10T15:01:36;5.93;;;1.60;;
286;SDS011;127;48.770;9.212;2023-05-10T15:04:18;4.30;;;1.20;;
286;SDS011;127;48.770;9.212;2023-05-10T15:06:48;1.50;;;1.00;;
286;SDS011;127;48.770;9.212;2023-05-10T15:09:17;2.70;;;1.20;;
286;SDS011;127;48.770;9.212;2023-05-10T15:11:52;2.50;;;1.20;;
286;SDS011;127;48.770;9.212;2023-05-10T15:14:21;1.83;;;1.00;;
286;SDS011;127;48.770;9.212;2023-05-10T15:16:55;3.00;;;1.40;;
286;SDS011;127;48.770;9.212;2023-05-10T15:19:47;2.70;;;1.30;;
286;SDS011;127;48.770;9.212;2023-05-10T15:22:24;2.47;;;1.30;;
286;SDS011;127;48.770;9.212;2023-05-10T15:28:22;6.80;;;1.20;;
286;SDS011;127;48.770;9.212;2023-05-10T15:30:51;3.13;;;1.40;;
286;SDS011;127;48.770;9.212;2023-05-10T15:33:20;1.50;;;1.20;;
286;SDS011;127;48.770;9.212;2023-05-10T15:35:52;3.97;;;1.10;;
286;SDS011;127;48.770;9.212;2023-05-10T15:38:22;4.20;;;1.37;;
286;SDS011;127;48.770;9.212;2023-05-10T15:40:51;2.27;;;1.20;;
286;SDS011;127;48.770;9.212;2023-05-10T15:43:24;4.73;;;1.77;;
286;SDS011;127;48.770;9.212;2023-05-10T15:45:53;3.03;;;1.10;;
286;SDS011;127;48.770;9.212;2023-05-10T15:48:23;3.30;;;1.20;;
286;SDS011;127;48.770;9.212;2023-05-10T15:50:58;2.77;;;1.40;;
286;SDS011;127;48.770;9.212;2023-05-10T15:53:27;2.50;;;1.57;;
286;SDS011;127;48.770;9.212;2023-05-10T15:56:02;1.87;;;1.43;;
286;SDS011;127;48.770;9.212;2023-05-10T16:01:16;1.00;;;1.00;;
286;SDS011;127;48.770;9.212;2023-05-10T16:03:45;3.00;;;1.40;;
286;SDS011;127;48.770;9.212;2023-05-10T16:06:16;2.03;;;1.50;;
286;SDS011;127;48.770;9.212;2023-05-10T16:08:45;5.73;;;1.10;;
286;SDS011;127;48.770;9.212;2023-05-10T16:11:14;3.13;;;1.30;;
286;SDS011;127;48.770;9.212;2023-05-10T16:13:53;2.33;;;1.33;;
286;SDS011;127;48.770;9.212;2023-05-10T16:16:46;3.50;;;1.23;;
286;SDS011;127;48.770;9.212;2023-05-10T16:19:25;2.80;;;1.10;;
286;SDS011;127;48.770;9.212;2023-05-10T16:22:35;2.80;;;1.00;;
286;SDS011;127;48.770;9.212;2023-05-10T16:25:16;1.13;;;1.13;;
286;SDS011;127;48.770;9.212;2023-05-10T16:27:55;1.60;;;1.10;;
286;SDS011;127;48.770;9.212;2023-05-10T16:30:37;1.67;;;1.20;;
286;SDS011;127;48.770;9.212;2023-05-10T16:33:18;6.10;;;1.47;;
286;SDS011;127;48.770;9.212;2023-05-10T16:35:57;2.47;;;1.73;;
286;SDS011;127;48.770;9.212;2023-05-10T16:38:49;1.57;;;1.20;;
286;SDS011;127;48.770;9.212;2023-05-10T16:41:25;2.30;;;1.10;;
286;SDS011;127;48.770;9.212;2023-05-10T16:43:53;2.07;;;1.20;;
286;SDS011;127;48.770;9.212;2023-05-10T16:46:31;4.00;;;1.17;;
286;SDS011;127;48.770;9.212;2023-05-10T16:49:09;1.13;;;1.10;;
286;SDS011;127;48.770;9.212;2023-05-10T16:51:39;1.27;;;1.23;;
286;SDS011;127;48.770;9.212;2023-05-10T16:54:10;5.00;;;1.10;;
286;SDS011;127;48.770;9.212;2023-05-10T16:56:41;6.87;;;1.30;;
286;SDS011;127;48.770;9.212;2023-05-10T16:59:11;2.17;;;1.23;;
286;SDS011;127;48.770;9.212;2023-05-10T17:01:40;1.10;;;1.10;;
286;SDS011;127;48.770;9.212;2023-05-10T17:04:11;2.50;;;1.40;;